sensor_id;sensor_type;location;lat;lon;timestamp;P1;durP1;ratioP1;P2;durP2;ratioP2
14348;SDS011;7258;50.376;8.742;2022-12-08T00:01:54;12.07;;;9.40;;
14348;SDS011;7258;50.376;8.742;2022-12-08T00:03:58;10.67;;;9.20;;
14348;SDS011;7258;50.376;8.742;2022-12-08T00:06:03;11.60;;;9.00;;
14348;SDS011;7258;50.376;8.742;2022-12-08T00:08:25;10.57;;;8.93;;
14348;SDS011;7258;50.376;8.742;2022-12-08T00:10:45;13.37;;;9.10;;
14348;SDS011;7258;50.376;8.742;2022-12-08T00:12:50;13.10;;;9.40;;
14348;SDS011;7258;50.376;8.742;2022-12-08T00:14:53;10.70;;;9.03;;
14348;SDS011;7258;50.376;8.742;2022-12-08T00:16:55;14.80;;;10.23;;
14348;SDS011;7258;50.376;8.742;2022-12-08T00:18:59;12.67;;;10.17;;
14348;SDS011;7258;50.376;8.742;2022-12-08T00:21:03;11.00;;;9.10;;
14348;SDS011;7258;50.376;8.742;2022-12-08T00:23:06;13.23;;;10.17;;
14348;SDS011;7258;50.376;8.742;2022-12-08T00:25:09;12.47;;;9.67;;
14348;SDS011;7258;50.376;8.742;2022-12-08T00:27:13;16.37;;;9.83;;
14348;SDS011;7258;50.376;8.742;2022-12-08T00:29:18;11.23;;;9.57;;
14348;SDS011;7258;50.376;8.742;2022-12-08T00:31:20;13.67;;;9.83;;
14348;SDS011;7258;50.376;8.742;2022-12-08T00:33:23;13.90;;;10.03;;
14348;SDS011;7258;50.376;8.742;2022-12-08T00:35:28;14.83;;;9.93;;
14348;SDS011;7258;50.376;8.742;2022-12-08T00:37:32;13.10;;;9.93;;
14348;SDS011;7258;50.376;8.742;2022-12-08T00:39:35;12.07;;;9.70;;
14348;SDS011;7258;50.376;8.742;2022-12-08T00:41:38;12.30;;;11.00;;
14348;SDS011;7258;50.376;8.742;2022-12-08T00:43:58;16.00;;;10.10;;
14348;SDS011;7258;50.376;8.742;2022-12-08T00:46:01;12.77;;;9.83;;
14348;SDS011;7258;50.376;8.742;2022-12-08T00:48:04;13.20;;;10.67;;
14348;SDS011;7258;50.376;8.742;2022-12-08T00:50:08;11.73;;;10.03;;
14348;SDS011;7258;50.376;8.742;2022-12-08T00:52:11;13.63;;;10.17;;
14348;SDS011;7258;50.376;8.742;2022-12-08T00:54:15;16.10;;;10.57;;
14348;SDS011;7258;50.376;8.742;2022-12-08T00:56:18;12.83;;;10.40;;
14348;SDS011;7258;50.376;8.742;2022-12-08T00:58:21;18.97;;;10.37;;
14348;SDS011;7258;50.376;8.742;2022-12-08T01:00:24;12.00;;;10.57;;
14348;SDS011;7258;50.376;8.742;2022-12-08T01:02:27;13.37;;;10.60;;
14348;SDS011;7258;50.376;8.742;2022-12-08T01:04:29;13.90;;;10.07;;
14348;SDS011;7258;50.376;8.742;2022-12-08T01:06:33;11.27;;;10.07;;
14348;SDS011;7258;50.376;8.742;2022-12-08T01:08:37;13.80;;;10.70;;
14348;SDS011;7258;50.376;8.742;2022-12-08T01:10:42;13.70;;;10.60;;
14348;SDS011;7258;50.376;8.742;2022-12-08T01:12:44;16.40;;;11.40;;
14348;SDS011;7258;50.376;8.742;2022-12-08T01:14:47;13.53;;;10.27;;
14348;SDS011;7258;50.376;8.742;2022-12-08T01:16:50;16.33;;;11.83;;
14348;SDS011;7258;50.376;8.742;2022-12-08T01:18:54;16.23;;;11.47;;
14348;SDS011;7258;50.376;8.742;2022-12-08T01:21:00;14.73;;;11.67;;
14348;SDS011;7258;50.376;8.742;2022-12-08T01:23:04;12.80;;;10.97;;
14348;SDS011;7258;50.376;8.742;2022-12-08T01:25:07;15.70;;;11.40;;
14348;SDS011;7258;50.376;8.742;2022-12-08T01:27:13;15.17;;;11.03;;
14348;SDS011;7258;50.376;8.742;2022-12-08T01:29:16;14.23;;;11.07;;
14348;SDS011;7258;50.376;8.742;2022-12-08T01:31:19;12.80;;;11.07;;
14348;SDS011;7258;50.376;8.742;2022-12-08T01:33:23;14.17;;;11.63;;
14348;SDS011;7258;50.376;8.742;2022-12-08T01:35:26;15.73;;;12.50;;
14348;SDS011;7258;50.376;8.742;2022-12-08T01:37:29;16.33;;;11.60;;
14348;SDS011;7258;50.376;8.742;2022-12-08T01:39:32;15.47;;;12.40;;
14348;SDS011;7258;50.376;8.742;2022-12-08T01:41:35;15.57;;;12.37;;
14348;SDS011;7258;50.376;8.742;2022-12-08T01:43:54;16.00;;;12.23;;
14348;SDS011;7258;50.376;8.742;2022-12-08T01:45:59;14.20;;;11.93;;
14348;SDS011;7258;50.376;8.742;2022-12-08T01:48:03;14.83;;;12.13;;
14348;SDS011;7258;50.376;8.742;2022-12-08T01:50:09;18.13;;;12.40;;
14348;SDS011;7258;50.376;8.742;2022-12-08T01:52:15;15.33;;;12.03;;
14348;SDS011;7258;50.376;8.742;2022-12-08T01:54:23;17.87;;;12.13;;
14348;SDS011;7258;50.376;8.742;2022-12-08T01:56:30;16.33;;;13.10;;
14348;SDS011;7258;50.376;8.742;2022-12-08T01:58:38;17.37;;;12.67;;
14348;SDS011;7258;50.376;8.742;2022-12-08T02:00:45;16.90;;;12.47;;
14348;SDS011;7258;50.376;8.742;2022-12-08T02:02:50;17.47;;;11.67;;
14348;SDS011;7258;50.376;8.742;2022-12-08T02:04:55;16.67;;;12.67;;
14348;SDS011;7258;50.376;8.742;2022-12-08T02:06:58;18.60;;;12.33;;
14348;SDS011;7258;50.376;8.742;2022-12-08T02:09:08;17.40;;;13.60;;
14348;SDS011;7258;50.376;8.742;2022-12-08T02:11:12;16.67;;;12.70;;
14348;SDS011;7258;50.376;8.742;2022-12-08T02:13:15;15.43;;;11.80;;
14348;SDS011;7258;50.376;8.742;2022-12-08T02:15:20;17.13;;;12.43;;
14348;SDS011;7258;50.376;8.742;2022-12-08T02:17:41;17.30;;;12.80;;
14348;SDS011;7258;50.376;8.742;2022-12-08T02:20:04;15.63;;;12.23;;
14348;SDS011;7258;50.376;8.742;2022-12-08T02:22:42;15.80;;;12.33;;
14348;SDS011;7258;50.376;8.742;2022-12-08T02:24:54;17.03;;;13.33;;
14348;SDS011;7258;50.376;8.742;2022-12-08T02:27:22;17.33;;;11.77;;
14348;SDS011;7258;50.376;8.742;2022-12-08T02:29:51;16.83;;;12.87;;
14348;SDS011;7258;50.376;8.742;2022-12-08T02:32:29;19.60;;;13.20;;
14348;SDS011;7258;50.376;8.742;2022-12-08T02:34:55;17.30;;;12.80;;
14348;SDS011;7258;50.376;8.742;2022-12-08T02:37:02;18.47;;;12.87;;
14348;SDS011;7258;50.376;8.742;2022-12-08T02:39:14;16.77;;;12.63;;
14348;SDS011;7258;50.376;8.742;2022-12-08T02:41:28;17.07;;;12.47;;
14348;SDS011;7258;50.376;8.742;2022-12-08T02:43:38;17.63;;;13.43;;
14348;SDS011;7258;50.376;8.742;2022-12-08T02:45:46;17.83;;;12.53;;
14348;SDS011;7258;50.376;8.742;2022-12-08T02:47:51;17.30;;;13.07;;
14348;SDS011;7258;50.376;8.742;2022-12-08T02:49:56;17.07;;;12.63;;
14348;SDS011;7258;50.376;8.742;2022-12-08T02:52:03;18.77;;;13.47;;
14348;SDS011;7258;50.376;8.742;2022-12-08T02:54:07;17.60;;;12.83;;
14348;SDS011;7258;50.376;8.742;2022-12-08T02:56:13;18.17;;;12.40;;
14348;SDS011;7258;50.376;8.742;2022-12-08T02:58:34;17.67;;;13.63;;
14348;SDS011;7258;50.376;8.742;2022-12-08T03:00:52;17.03;;;13.60;;
14348;SDS011;7258;50.376;8.742;2022-12-08T03:03:07;17.73;;;13.77;;
14348;SDS011;7258;50.376;8.742;2022-12-08T03:05:20;18.47;;;13.63;;
14348;SDS011;7258;50.376;8.742;2022-12-08T03:07:30;21.00;;;13.93;;
14348;SDS011;7258;50.376;8.742;2022-12-08T03:09:38;17.80;;;13.37;;
14348;SDS011;7258;50.376;8.742;2022-12-08T03:11:46;19.70;;;13.77;;
14348;SDS011;7258;50.376;8.742;2022-12-08T03:13:55;17.40;;;13.80;;
14348;SDS011;7258;50.376;8.742;2022-12-08T03:16:01;18.03;;;14.10;;
14348;SDS011;7258;50.376;8.742;2022-12-08T03:18:08;17.47;;;13.93;;
14348;SDS011;7258;50.376;8.742;2022-12-08T03:20:15;19.53;;;13.90;;
14348;SDS011;7258;50.376;8.742;2022-12-08T03:22:24;19.03;;;13.43;;
14348;SDS011;7258;50.376;8.742;2022-12-08T03:24:28;18.90;;;14.00;;
14348;SDS011;7258;50.376;8.742;2022-12-08T03:26:35;19.37;;;13.73;;
14348;SDS011;7258;50.376;8.742;2022-12-08T03:28:44;20.87;;;14.80;;
14348;SDS011;7258;50.376;8.742;2022-12-08T03:30:49;19.07;;;14.27;;
14348;SDS011;7258;50.376;8.742;2022-12-08T03:32:59;19.30;;;15.13;;
14348;SDS011;7258;50.376;8.742;2022-12-08T03:35:08;20.30;;;15.60;;
14348;SDS011;7258;50.376;8.742;2022-12-08T03:37:16;18.20;;;14.77;;
14348;SDS011;7258;50.376;8.742;2022-12-08T03:39:20;22.20;;;14.90;;
14348;SDS011;7258;50.376;8.742;2022-12-08T03:41:22;19.47;;;14.57;;
14348;SDS011;7258;50.376;8.742;2022-12-08T03:43:27;21.07;;;14.83;;
14348;SDS011;7258;50.376;8.742;2022-12-08T03:45:32;19.20;;;14.80;;
14348;SDS011;7258;50.376;8.742;2022-12-08T03:47:37;21.33;;;14.97;;
14348;SDS011;7258;50.376;8.742;2022-12-08T03:49:43;19.07;;;15.20;;
14348;SDS011;7258;50.376;8.742;2022-12-08T03:51:47;24.30;;;16.57;;
14348;SDS011;7258;50.376;8.742;2022-12-08T03:53:55;23.00;;;16.67;;
14348;SDS011;7258;50.376;8.742;2022-12-08T03:55:58;23.57;;;16.60;;
14348;SDS011;7258;50.376;8.742;2022-12-08T03:58:02;23.93;;;16.70;;
14348;SDS011;7258;50.376;8.742;2022-12-08T04:00:10;21.47;;;16.30;;
14348;SDS011;7258;50.376;8.742;2022-12-08T04:02:17;22.60;;;16.80;;
14348;SDS011;7258;50.376;8.742;2022-12-08T04:04:20;22.43;;;16.70;;
14348;SDS011;7258;50.376;8.742;2022-12-08T04:06:23;26.13;;;18.27;;
14348;SDS011;7258;50.376;8.742;2022-12-08T04:08:27;23.10;;;17.03;;
14348;SDS011;7258;50.376;8.742;2022-12-08T04:10:34;27.57;;;18.10;;
14348;SDS011;7258;50.376;8.742;2022-12-08T04:12:42;24.87;;;19.10;;
14348;SDS011;7258;50.376;8.742;2022-12-08T04:14:45;23.20;;;17.53;;
14348;SDS011;7258;50.376;8.742;2022-12-08T04:16:53;27.20;;;18.47;;
14348;SDS011;7258;50.376;8.742;2022-12-08T04:18:59;25.03;;;18.50;;
14348;SDS011;7258;50.376;8.742;2022-12-08T04:21:03;26.57;;;18.93;;
14348;SDS011;7258;50.376;8.742;2022-12-08T04:23:06;26.03;;;18.97;;
14348;SDS011;7258;50.376;8.742;2022-12-08T04:25:20;24.77;;;18.63;;
14348;SDS011;7258;50.376;8.742;2022-12-08T04:27:25;25.03;;;18.50;;
14348;SDS011;7258;50.376;8.742;2022-12-08T04:29:28;30.43;;;19.77;;
14348;SDS011;7258;50.376;8.742;2022-12-08T04:31:31;27.50;;;19.17;;
14348;SDS011;7258;50.376;8.742;2022-12-08T04:33:36;31.47;;;20.00;;
14348;SDS011;7258;50.376;8.742;2022-12-08T04:35:40;28.80;;;20.13;;
14348;SDS011;7258;50.376;8.742;2022-12-08T04:37:46;27.90;;;19.47;;
14348;SDS011;7258;50.376;8.742;2022-12-08T04:39:52;29.63;;;19.20;;
14348;SDS011;7258;50.376;8.742;2022-12-08T04:41:55;30.43;;;20.17;;
14348;SDS011;7258;50.376;8.742;2022-12-08T04:44:00;26.97;;;20.20;;
14348;SDS011;7258;50.376;8.742;2022-12-08T04:46:15;28.53;;;20.77;;
14348;SDS011;7258;50.376;8.742;2022-12-08T04:48:19;31.87;;;20.53;;
14348;SDS011;7258;50.376;8.742;2022-12-08T04:50:22;32.20;;;21.53;;
14348;SDS011;7258;50.376;8.742;2022-12-08T04:52:25;29.83;;;20.97;;
14348;SDS011;7258;50.376;8.742;2022-12-08T04:54:28;30.23;;;21.37;;
14348;SDS011;7258;50.376;8.742;2022-12-08T04:56:31;30.57;;;21.30;;
14348;SDS011;7258;50.376;8.742;2022-12-08T04:58:34;32.83;;;22.17;;
14348;SDS011;7258;50.376;8.742;2022-12-08T05:00:38;31.17;;;22.83;;
14348;SDS011;7258;50.376;8.742;2022-12-08T05:02:41;33.83;;;21.40;;
14348;SDS011;7258;50.376;8.742;2022-12-08T05:04:44;32.43;;;21.90;;
14348;SDS011;7258;50.376;8.742;2022-12-08T05:06:47;33.40;;;22.53;;
14348;SDS011;7258;50.376;8.742;2022-12-08T05:08:50;31.27;;;22.50;;
14348;SDS011;7258;50.376;8.742;2022-12-08T05:10:53;30.17;;;22.27;;
14348;SDS011;7258;50.376;8.742;2022-12-08T05:13:02;30.30;;;21.60;;
14348;SDS011;7258;50.376;8.742;2022-12-08T05:15:08;36.73;;;22.77;;
14348;SDS011;7258;50.376;8.742;2022-12-08T05:17:12;32.97;;;22.10;;
14348;SDS011;7258;50.376;8.742;2022-12-08T05:19:19;34.83;;;23.27;;
14348;SDS011;7258;50.376;8.742;2022-12-08T05:21:22;34.80;;;23.00;;
14348;SDS011;7258;50.376;8.742;2022-12-08T05:23:25;35.50;;;23.77;;
14348;SDS011;7258;50.376;8.742;2022-12-08T05:25:28;37.80;;;24.60;;
14348;SDS011;7258;50.376;8.742;2022-12-08T05:27:32;36.90;;;22.87;;
14348;SDS011;7258;50.376;8.742;2022-12-08T05:29:37;32.90;;;22.93;;
14348;SDS011;7258;50.376;8.742;2022-12-08T05:31:40;35.60;;;23.17;;
14348;SDS011;7258;50.376;8.742;2022-12-08T05:33:44;35.17;;;24.67;;
14348;SDS011;7258;50.376;8.742;2022-12-08T05:35:48;40.97;;;24.47;;
14348;SDS011;7258;50.376;8.742;2022-12-08T05:37:53;36.53;;;23.70;;
14348;SDS011;7258;50.376;8.742;2022-12-08T05:39:56;36.97;;;24.80;;
14348;SDS011;7258;50.376;8.742;2022-12-08T05:41:58;34.60;;;24.47;;
14348;SDS011;7258;50.376;8.742;2022-12-08T05:44:01;35.30;;;23.07;;
14348;SDS011;7258;50.376;8.742;2022-12-08T05:46:06;38.53;;;24.07;;
14348;SDS011;7258;50.376;8.742;2022-12-08T05:48:10;41.80;;;24.67;;
14348;SDS011;7258;50.376;8.742;2022-12-08T05:50:18;38.47;;;25.23;;
14348;SDS011;7258;50.376;8.742;2022-12-08T05:52:21;40.30;;;24.67;;
14348;SDS011;7258;50.376;8.742;2022-12-08T05:54:24;36.03;;;23.43;;
14348;SDS011;7258;50.376;8.742;2022-12-08T05:56:29;36.43;;;24.43;;
14348;SDS011;7258;50.376;8.742;2022-12-08T05:58:32;38.10;;;24.67;;
14348;SDS011;7258;50.376;8.742;2022-12-08T06:00:37;35.40;;;23.20;;
14348;SDS011;7258;50.376;8.742;2022-12-08T06:02:42;36.63;;;23.17;;
14348;SDS011;7258;50.376;8.742;2022-12-08T06:04:49;35.83;;;23.20;;
14348;SDS011;7258;50.376;8.742;2022-12-08T06:06:53;38.33;;;23.73;;
14348;SDS011;7258;50.376;8.742;2022-12-08T06:08:55;38.87;;;24.40;;
14348;SDS011;7258;50.376;8.742;2022-12-08T06:10:58;34.40;;;22.83;;
14348;SDS011;7258;50.376;8.742;2022-12-08T06:13:01;34.90;;;23.40;;
14348;SDS011;7258;50.376;8.742;2022-12-08T06:15:05;33.67;;;22.73;;
14348;SDS011;7258;50.376;8.742;2022-12-08T06:17:08;36.47;;;23.57;;
14348;SDS011;7258;50.376;8.742;2022-12-08T06:19:11;34.13;;;23.07;;
14348;SDS011;7258;50.376;8.742;2022-12-08T06:21:15;34.43;;;22.13;;
14348;SDS011;7258;50.376;8.742;2022-12-08T06:23:20;33.40;;;21.83;;
14348;SDS011;7258;50.376;8.742;2022-12-08T06:25:23;33.60;;;21.80;;
14348;SDS011;7258;50.376;8.742;2022-12-08T06:27:26;36.30;;;22.67;;
14348;SDS011;7258;50.376;8.742;2022-12-08T06:29:29;33.60;;;21.90;;
14348;SDS011;7258;50.376;8.742;2022-12-08T06:31:32;32.93;;;21.70;;
14348;SDS011;7258;50.376;8.742;2022-12-08T06:33:35;34.87;;;22.23;;
14348;SDS011;7258;50.376;8.742;2022-12-08T06:35:38;30.23;;;20.87;;
14348;SDS011;7258;50.376;8.742;2022-12-08T06:37:41;34.97;;;22.13;;
14348;SDS011;7258;50.376;8.742;2022-12-08T06:39:45;32.27;;;21.37;;
14348;SDS011;7258;50.376;8.742;2022-12-08T06:41:48;32.23;;;20.90;;
14348;SDS011;7258;50.376;8.742;2022-12-08T06:44:08;32.87;;;21.40;;
14348;SDS011;7258;50.376;8.742;2022-12-08T06:46:12;29.10;;;20.30;;
14348;SDS011;7258;50.376;8.742;2022-12-08T06:48:16;29.43;;;19.97;;
14348;SDS011;7258;50.376;8.742;2022-12-08T06:50:20;31.30;;;21.03;;
14348;SDS011;7258;50.376;8.742;2022-12-08T06:52:22;29.57;;;21.57;;
14348;SDS011;7258;50.376;8.742;2022-12-08T06:54:25;31.07;;;20.70;;
14348;SDS011;7258;50.376;8.742;2022-12-08T06:56:30;30.17;;;19.80;;
14348;SDS011;7258;50.376;8.742;2022-12-08T06:58:33;33.43;;;20.60;;
14348;SDS011;7258;50.376;8.742;2022-12-08T07:00:35;31.43;;;19.60;;
14348;SDS011;7258;50.376;8.742;2022-12-08T07:02:38;29.93;;;20.23;;
14348;SDS011;7258;50.376;8.742;2022-12-08T07:04:43;28.67;;;19.70;;
14348;SDS011;7258;50.376;8.742;2022-12-08T07:06:46;31.13;;;19.63;;
14348;SDS011;7258;50.376;8.742;2022-12-08T07:08:49;32.87;;;20.50;;
14348;SDS011;7258;50.376;8.742;2022-12-08T07:10:54;27.83;;;19.10;;
14348;SDS011;7258;50.376;8.742;2022-12-08T07:12:59;31.47;;;20.37;;
14348;SDS011;7258;50.376;8.742;2022-12-08T07:15:02;30.03;;;20.50;;
14348;SDS011;7258;50.376;8.742;2022-12-08T07:17:05;29.47;;;20.20;;
14348;SDS011;7258;50.376;8.742;2022-12-08T07:19:08;26.03;;;19.07;;
14348;SDS011;7258;50.376;8.742;2022-12-08T07:21:12;30.57;;;20.67;;
14348;SDS011;7258;50.376;8.742;2022-12-08T07:23:16;26.53;;;19.97;;
14348;SDS011;7258;50.376;8.742;2022-12-08T07:25:18;31.47;;;20.90;;
14348;SDS011;7258;50.376;8.742;2022-12-08T07:27:21;29.20;;;19.63;;
14348;SDS011;7258;50.376;8.742;2022-12-08T07:29:25;24.60;;;18.57;;
14348;SDS011;7258;50.376;8.742;2022-12-08T07:31:31;29.63;;;21.40;;
14348;SDS011;7258;50.376;8.742;2022-12-08T07:33:51;28.23;;;21.00;;
14348;SDS011;7258;50.376;8.742;2022-12-08T07:35:55;29.20;;;19.23;;
14348;SDS011;7258;50.376;8.742;2022-12-08T07:37:59;30.23;;;20.43;;
14348;SDS011;7258;50.376;8.742;2022-12-08T07:40:02;29.20;;;19.37;;
14348;SDS011;7258;50.376;8.742;2022-12-08T07:42:06;28.10;;;19.47;;
14348;SDS011;7258;50.376;8.742;2022-12-08T07:44:09;29.27;;;19.77;;
14348;SDS011;7258;50.376;8.742;2022-12-08T07:46:15;29.43;;;19.60;;
14348;SDS011;7258;50.376;8.742;2022-12-08T07:48:19;27.73;;;19.43;;
14348;SDS011;7258;50.376;8.742;2022-12-08T07:50:22;28.40;;;20.33;;
14348;SDS011;7258;50.376;8.742;2022-12-08T07:52:25;23.80;;;17.70;;
14348;SDS011;7258;50.376;8.742;2022-12-08T07:54:28;28.83;;;18.93;;
14348;SDS011;7258;50.376;8.742;2022-12-08T07:56:30;28.33;;;19.60;;
14348;SDS011;7258;50.376;8.742;2022-12-08T07:58:33;28.63;;;18.40;;
14348;SDS011;7258;50.376;8.742;2022-12-08T08:00:36;26.07;;;19.27;;
14348;SDS011;7258;50.376;8.742;2022-12-08T08:02:41;22.90;;;18.20;;
14348;SDS011;7258;50.376;8.742;2022-12-08T08:04:44;28.53;;;19.83;;
14348;SDS011;7258;50.376;8.742;2022-12-08T08:06:50;26.80;;;19.47;;
14348;SDS011;7258;50.376;8.742;2022-12-08T08:08:53;23.77;;;17.77;;
14348;SDS011;7258;50.376;8.742;2022-12-08T08:10:56;23.63;;;17.40;;
14348;SDS011;7258;50.376;8.742;2022-12-08T08:12:59;24.60;;;17.63;;
14348;SDS011;7258;50.376;8.742;2022-12-08T08:15:02;24.90;;;17.50;;
14348;SDS011;7258;50.376;8.742;2022-12-08T08:17:07;21.77;;;16.93;;
14348;SDS011;7258;50.376;8.742;2022-12-08T08:19:11;19.87;;;16.30;;
14348;SDS011;7258;50.376;8.742;2022-12-08T08:21:14;19.90;;;16.37;;
14348;SDS011;7258;50.376;8.742;2022-12-08T08:23:38;22.13;;;16.13;;
14348;SDS011;7258;50.376;8.742;2022-12-08T08:25:40;22.23;;;16.57;;
14348;SDS011;7258;50.376;8.742;2022-12-08T08:27:43;20.17;;;16.27;;
14348;SDS011;7258;50.376;8.742;2022-12-08T08:29:46;19.80;;;15.13;;
14348;SDS011;7258;50.376;8.742;2022-12-08T08:31:49;21.17;;;16.03;;
14348;SDS011;7258;50.376;8.742;2022-12-08T08:33:52;19.40;;;14.73;;
14348;SDS011;7258;50.376;8.742;2022-12-08T08:35:56;19.13;;;14.73;;
14348;SDS011;7258;50.376;8.742;2022-12-08T08:37:59;20.63;;;15.37;;
14348;SDS011;7258;50.376;8.742;2022-12-08T08:40:03;20.50;;;14.83;;
14348;SDS011;7258;50.376;8.742;2022-12-08T08:42:07;19.17;;;14.63;;
14348;SDS011;7258;50.376;8.742;2022-12-08T08:44:11;18.40;;;14.53;;
14348;SDS011;7258;50.376;8.742;2022-12-08T08:46:14;17.57;;;14.00;;
14348;SDS011;7258;50.376;8.742;2022-12-08T08:48:17;17.90;;;14.20;;
14348;SDS011;7258;50.376;8.742;2022-12-08T08:50:20;19.83;;;14.97;;
14348;SDS011;7258;50.376;8.742;2022-12-08T08:52:24;23.10;;;14.73;;
14348;SDS011;7258;50.376;8.742;2022-12-08T08:54:27;18.83;;;14.03;;
14348;SDS011;7258;50.376;8.742;2022-12-08T08:56:30;19.80;;;14.53;;
14348;SDS011;7258;50.376;8.742;2022-12-08T08:58:33;17.13;;;13.70;;
14348;SDS011;7258;50.376;8.742;2022-12-08T09:00:35;17.77;;;13.77;;
14348;SDS011;7258;50.376;8.742;2022-12-08T09:02:38;17.47;;;13.57;;
14348;SDS011;7258;50.376;8.742;2022-12-08T09:04:45;17.07;;;14.13;;
14348;SDS011;7258;50.376;8.742;2022-12-08T09:06:48;17.00;;;13.60;;
14348;SDS011;7258;50.376;8.742;2022-12-08T09:08:52;16.17;;;13.00;;
14348;SDS011;7258;50.376;8.742;2022-12-08T09:10:55;17.37;;;13.63;;
14348;SDS011;7258;50.376;8.742;2022-12-08T09:12:58;19.27;;;14.47;;
14348;SDS011;7258;50.376;8.742;2022-12-08T09:15:01;18.90;;;14.30;;
14348;SDS011;7258;50.376;8.742;2022-12-08T09:17:03;19.60;;;14.93;;
14348;SDS011;7258;50.376;8.742;2022-12-08T09:19:07;19.83;;;14.70;;
14348;SDS011;7258;50.376;8.742;2022-12-08T09:21:10;19.50;;;15.47;;
14348;SDS011;7258;50.376;8.742;2022-12-08T09:23:16;23.23;;;16.20;;
14348;SDS011;7258;50.376;8.742;2022-12-08T09:25:20;20.53;;;16.37;;
14348;SDS011;7258;50.376;8.742;2022-12-08T09:27:23;19.87;;;15.07;;
14348;SDS011;7258;50.376;8.742;2022-12-08T09:29:26;20.30;;;15.53;;
14348;SDS011;7258;50.376;8.742;2022-12-08T09:31:36;21.10;;;15.60;;
14348;SDS011;7258;50.376;8.742;2022-12-08T09:33:39;16.97;;;15.17;;
14348;SDS011;7258;50.376;8.742;2022-12-08T09:35:43;17.87;;;14.80;;
14348;SDS011;7258;50.376;8.742;2022-12-08T09:37:46;20.50;;;15.13;;
14348;SDS011;7258;50.376;8.742;2022-12-08T09:39:49;18.33;;;14.67;;
14348;SDS011;7258;50.376;8.742;2022-12-08T09:41:53;19.17;;;14.77;;
14348;SDS011;7258;50.376;8.742;2022-12-08T09:44:04;18.97;;;14.40;;
14348;SDS011;7258;50.376;8.742;2022-12-08T09:46:20;21.50;;;15.77;;
14348;SDS011;7258;50.376;8.742;2022-12-08T09:48:24;19.07;;;14.33;;
14348;SDS011;7258;50.376;8.742;2022-12-08T09:50:34;16.40;;;14.43;;
14348;SDS011;7258;50.376;8.742;2022-12-08T09:52:41;16.57;;;13.77;;
14348;SDS011;7258;50.376;8.742;2022-12-08T09:54:46;19.33;;;14.30;;
14348;SDS011;7258;50.376;8.742;2022-12-08T09:56:50;18.27;;;14.40;;
14348;SDS011;7258;50.376;8.742;2022-12-08T09:58:58;17.13;;;14.00;;
14348;SDS011;7258;50.376;8.742;2022-12-08T10:01:03;15.93;;;13.67;;
14348;SDS011;7258;50.376;8.742;2022-12-08T10:03:09;16.73;;;13.43;;
14348;SDS011;7258;50.376;8.742;2022-12-08T10:05:17;15.63;;;13.43;;
14348;SDS011;7258;50.376;8.742;2022-12-08T10:07:23;15.37;;;13.50;;
14348;SDS011;7258;50.376;8.742;2022-12-08T10:09:34;17.73;;;13.40;;
14348;SDS011;7258;50.376;8.742;2022-12-08T10:11:42;17.10;;;13.27;;
14348;SDS011;7258;50.376;8.742;2022-12-08T10:13:53;15.23;;;12.47;;
14348;SDS011;7258;50.376;8.742;2022-12-08T10:16:10;16.87;;;13.07;;
14348;SDS011;7258;50.376;8.742;2022-12-08T10:18:29;15.40;;;12.53;;
14348;SDS011;7258;50.376;8.742;2022-12-08T10:20:35;15.70;;;12.43;;
14348;SDS011;7258;50.376;8.742;2022-12-08T10:22:40;15.20;;;11.80;;
14348;SDS011;7258;50.376;8.742;2022-12-08T10:24:47;17.03;;;12.57;;
14348;SDS011;7258;50.376;8.742;2022-12-08T10:26:56;13.90;;;11.60;;
14348;SDS011;7258;50.376;8.742;2022-12-08T10:29:01;13.37;;;11.67;;
14348;SDS011;7258;50.376;8.742;2022-12-08T10:31:04;14.57;;;11.67;;
14348;SDS011;7258;50.376;8.742;2022-12-08T10:33:08;13.90;;;11.93;;
14348;SDS011;7258;50.376;8.742;2022-12-08T10:35:17;14.27;;;10.77;;
14348;SDS011;7258;50.376;8.742;2022-12-08T10:37:21;15.00;;;12.10;;
14348;SDS011;7258;50.376;8.742;2022-12-08T10:39:28;16.97;;;11.30;;
14348;SDS011;7258;50.376;8.742;2022-12-08T10:41:32;13.73;;;11.30;;
14348;SDS011;7258;50.376;8.742;2022-12-08T10:43:35;14.73;;;11.90;;
14348;SDS011;7258;50.376;8.742;2022-12-08T10:45:42;15.13;;;10.43;;
14348;SDS011;7258;50.376;8.742;2022-12-08T10:47:46;16.53;;;13.30;;
14348;SDS011;7258;50.376;8.742;2022-12-08T10:50:16;16.47;;;12.27;;
14348;SDS011;7258;50.376;8.742;2022-12-08T10:52:20;11.43;;;10.30;;
14348;SDS011;7258;50.376;8.742;2022-12-08T10:54:25;13.27;;;10.67;;
14348;SDS011;7258;50.376;8.742;2022-12-08T10:56:31;17.43;;;13.00;;
14348;SDS011;7258;50.376;8.742;2022-12-08T10:58:35;14.80;;;11.67;;
14348;SDS011;7258;50.376;8.742;2022-12-08T11:00:42;16.07;;;11.63;;
14348;SDS011;7258;50.376;8.742;2022-12-08T11:02:57;12.83;;;10.67;;
14348;SDS011;7258;50.376;8.742;2022-12-08T11:05:02;12.00;;;10.57;;
14348;SDS011;7258;50.376;8.742;2022-12-08T11:07:05;14.63;;;10.53;;
14348;SDS011;7258;50.376;8.742;2022-12-08T11:09:23;10.77;;;9.67;;
14348;SDS011;7258;50.376;8.742;2022-12-08T11:11:38;12.10;;;10.60;;
14348;SDS011;7258;50.376;8.742;2022-12-08T11:13:46;16.33;;;10.43;;
14348;SDS011;7258;50.376;8.742;2022-12-08T11:15:53;12.77;;;10.17;;
14348;SDS011;7258;50.376;8.742;2022-12-08T11:17:58;12.53;;;10.73;;
14348;SDS011;7258;50.376;8.742;2022-12-08T11:20:17;15.50;;;11.57;;
14348;SDS011;7258;50.376;8.742;2022-12-08T11:22:23;15.67;;;11.43;;
14348;SDS011;7258;50.376;8.742;2022-12-08T11:24:27;10.87;;;9.70;;
14348;SDS011;7258;50.376;8.742;2022-12-08T11:26:37;12.63;;;11.27;;
14348;SDS011;7258;50.376;8.742;2022-12-08T11:28:40;14.13;;;11.67;;
14348;SDS011;7258;50.376;8.742;2022-12-08T11:30:43;14.23;;;10.97;;
14348;SDS011;7258;50.376;8.742;2022-12-08T11:32:53;12.53;;;10.30;;
14348;SDS011;7258;50.376;8.742;2022-12-08T11:34:58;14.73;;;10.80;;
14348;SDS011;7258;50.376;8.742;2022-12-08T11:37:04;12.93;;;10.97;;
14348;SDS011;7258;50.376;8.742;2022-12-08T11:39:09;13.97;;;10.10;;
14348;SDS011;7258;50.376;8.742;2022-12-08T11:41:15;13.47;;;11.30;;
14348;SDS011;7258;50.376;8.742;2022-12-08T11:43:20;14.37;;;11.00;;
14348;SDS011;7258;50.376;8.742;2022-12-08T11:45:29;13.00;;;10.63;;
14348;SDS011;7258;50.376;8.742;2022-12-08T11:47:36;14.10;;;10.87;;
14348;SDS011;7258;50.376;8.742;2022-12-08T11:49:58;16.20;;;11.67;;
14348;SDS011;7258;50.376;8.742;2022-12-08T11:52:20;14.80;;;10.63;;
14348;SDS011;7258;50.376;8.742;2022-12-08T11:54:29;14.57;;;10.30;;
14348;SDS011;7258;50.376;8.742;2022-12-08T11:56:35;12.97;;;10.73;;
14348;SDS011;7258;50.376;8.742;2022-12-08T11:58:41;13.83;;;10.73;;
14348;SDS011;7258;50.376;8.742;2022-12-08T12:00:47;12.63;;;10.40;;
14348;SDS011;7258;50.376;8.742;2022-12-08T12:02:51;15.93;;;10.23;;
14348;SDS011;7258;50.376;8.742;2022-12-08T12:05:03;11.40;;;10.17;;
14348;SDS011;7258;50.376;8.742;2022-12-08T12:07:17;25.73;;;13.27;;
14348;SDS011;7258;50.376;8.742;2022-12-08T12:12:08;8.40;;;7.30;;
14348;SDS011;7258;50.376;8.742;2022-12-08T12:14:26;18.37;;;10.47;;
14348;SDS011;7258;50.376;8.742;2022-12-08T12:16:46;6.70;;;4.20;;
14348;SDS011;7258;50.376;8.742;2022-12-08T12:19:13;5.87;;;4.10;;
14348;SDS011;7258;50.376;8.742;2022-12-08T12:21:19;4.87;;;4.13;;
14348;SDS011;7258;50.376;8.742;2022-12-08T12:23:27;9.03;;;3.20;;
14348;SDS011;7258;50.376;8.742;2022-12-08T12:27:50;4.70;;;3.30;;
14348;SDS011;7258;50.376;8.742;2022-12-08T12:29:59;4.07;;;3.50;;
14348;SDS011;7258;50.376;8.742;2022-12-08T12:32:04;3.63;;;3.17;;
14348;SDS011;7258;50.376;8.742;2022-12-08T12:34:10;3.13;;;2.83;;
14348;SDS011;7258;50.376;8.742;2022-12-08T12:36:18;3.87;;;2.77;;